Data for 07/10/2010

Time Sea-Level Adjusted Pressure Absolute Pressure Temperature Relative Humidity Dew Point   
(mb) (inHg) (mb) (inHg) (C) (F) (%) (C) (F)
00:05 1019 30.09 849 25.07 17.1 62.7 50 6.7 44.1
00:10 1019 30.09 848 25.04 16.8 62.2 50 6.3 43.3
00:15 1019 30.09 848 25.04 16.6 61.9 55 7.7 45.9
00:20 1019 30.09 848 25.04 16.5 61.6 51 6.5 43.6
00:25 1019 30.09 848 25.04 16.1 61 54 6.9 44.4
00:30 1019 30.09 848 25.04 15.9 60.6 53 6.3 43.4
00:35 1019 30.09 849 25.07 15.5 59.8 55 6.6 43.8
00:40 1019 30.09 849 25.07 15.1 59.2 54 6.1 42.9
00:45 1019 30.09 849 25.07 15.3 59.6 51 5.5 41.9
00:50 1019 30.09 849 25.07 16 60.7 51 5.9 42.5
00:55 1019 30.09 849 25.07 16.3 61.3 50 5.9 42.7
01:00 1019 30.09 849 25.07 16.2 61.2 49 5.6 42.1
01:05 1019 30.09 849 25.07 16.2 61.1 49 5.5 41.9
01:10 1019 30.09 849 25.07 16 60.8 48 5 41
01:15 1019 30.09 849 25.07 16 60.8 52 6.2 43.2
01:20 1019 30.09 849 25.07 15.6 60.1 53 6.2 43.2
01:25 1019 30.09 849 25.07 15.7 60.3 51 5.7 42.2
01:30 1019 30.09 849 25.07 15.4 59.7 54 6.2 43.2
01:35 1019 30.09 849 25.07 14.7 58.5 55 5.8 42.5
01:40 1019 30.09 849 25.07 14.7 58.5 54 5.6 42.1
01:45 1019 30.09 849 25.07 14.8 58.6 54 5.6 42
01:50 1019 30.09 849 25.07 14.7 58.5 54 5.6 42.1
01:55 1019 30.09 849 25.07 14.7 58.4 53 5.3 41.5
02:00 1019 30.09 849 25.07 14.9 58.8 51 4.9 40.9
02:05 1019 30.09 848 25.04 15.1 59.1 52 5.3 41.6
02:10 1019 30.09 848 25.04 14.7 58.5 52 5.1 41.2
02:15 1019 30.09 848 25.04 14.7 58.4 52 5 40.9
02:20 1019 30.09 848 25.04 15.1 59.1 49 4.5 40.1
02:25 1019 30.09 848 25.04 15.2 59.4 51 5.2 41.4
02:30 1019 30.09 848 25.04 14.9 58.9 51 4.9 40.7
02:35 1019 30.09 848 25.04 15.1 59.2 49 4.5 40.1
02:40 1019 30.09 848 25.04 15.2 59.4 49 4.8 40.6
02:45 1019 30.09 848 25.04 15 59 50 4.8 40.6
02:50 1019 30.09 848 25.04 15.2 59.3 49 4.6 40.3
02:55 1019 30.09 848 25.04 15.1 59.1 50 4.8 40.6
03:00 1019 30.09 848 25.04 14.9 58.8 51 4.8 40.7
03:05 1019 30.09 848 25.04 14.8 58.6 53 5.3 41.5
03:10 1019 30.09 848 25.04 14.4 57.9 53 4.9 40.9
03:15 1019 30.09 848 25.04 14.3 57.7 52 4.8 40.6
03:20 1019 30.09 848 25.04 14.2 57.5 54 5.1 41.2
03:25 1019 30.09 848 25.04 14.2 57.5 52 4.5 40
03:30 1019 30.09 848 25.04 14.5 58.1 51 4.7 40.4
03:35 1019 30.09 849 25.07 14.4 58 55 5.5 41.9
03:40 1019 30.09 848 25.04 14.2 57.6 51 4.3 39.8
03:45 1019 30.09 849 25.07 14.5 58 52 4.8 40.6
03:50 1019 30.09 849 25.07 14.5 58 52 4.7 40.5
03:55 1019 30.09 849 25.07 14.1 57.4 55 5.3 41.5
04:00 1019 30.09 849 25.07 13.6 56.5 56 5 41.1
04:05 1019 30.09 849 25.07 13.5 56.2 57 5.1 41.2
04:10 1019 30.09 848 25.04 13.5 56.2 58 5.3 41.6
04:15 1019 30.09 848 25.04 13.6 56.4 57 5.3 41.5
04:20 1019 30.09 848 25.04 13.5 56.3 57 5.3 41.5
04:25 1019 30.09 848 25.04 13.4 56.1 57 5 41
04:30 1019 30.09 849 25.07 13.4 56.1 57 5.2 41.3
04:35 1019 30.09 849 25.07 13.5 56.3 56 5.1 41.2
04:40 1019 30.09 848 25.04 13.2 55.8 58 5.2 41.4
04:45 1019 30.09 848 25.04 13 55.5 58 4.9 40.9
04:50 1019 30.09 848 25.04 13.3 55.9 57 4.9 40.9
04:55 1019 30.09 848 25.04 13.3 55.9 58 5.2 41.4
05:00 1019 30.09 848 25.04 13.3 56 56 4.7 40.5
05:05 1019 30.09 848 25.04 13.5 56.2 56 5 41
05:10 1019 30.09 848 25.04 13.4 56 57 5.2 41.3
05:15 1019 30.09 848 25.04 13 55.5 59 5.3 41.6
05:20 1019 30.09 849 25.07 12.9 55.2 58 5 40.9
05:25 1019 30.09 849 25.07 13.1 55.5 58 5.2 41.3
05:30 1019 30.09 849 25.07 13 55.4 57 4.7 40.5
05:35 1020 30.12 849 25.07 13.4 56.2 56 4.8 40.6
05:40 1020 30.12 849 25.07 13.8 56.8 54 4.7 40.4
05:45 1020 30.12 849 25.07 13.7 56.6 55 5 40.9
05:50 1020 30.12 849 25.07 13.5 56.3 55 4.6 40.4
05:55 1020 30.12 849 25.07 13.8 56.8 53 4.5 40.2
06:00 1020 30.12 849 25.07 14 57.2 54 4.9 40.8
06:05 1020 30.12 849 25.07 13.5 56.3 58 5.3 41.6
06:10 1020 30.12 849 25.07 13.3 56 56 4.9 40.8
06:15 1020 30.12 849 25.07 13.6 56.5 54 4.6 40.3
06:20 1020 30.12 849 25.07 13.7 56.7 55 5 41
06:25 1020 30.12 849 25.07 13.7 56.6 56 5.1 41.1
06:30 1020 30.12 849 25.07 13.7 56.7 55 5 40.9
06:35 1020 30.12 849 25.07 13.6 56.5 55 4.9 40.8
06:40 1020 30.12 849 25.07 13.6 56.4 56 5.1 41.2
06:45 1020 30.12 849 25.07 13.4 56 59 5.5 42
06:50 1020 30.12 849 25.07 13.1 55.5 60 5.5 41.8
06:55 1020 30.12 849 25.07 13.1 55.5 60 5.5 41.9
07:00 1020 30.12 849 25.07 13.3 55.9 59 5.6 42
07:05 1020 30.12 849 25.07 13.5 56.2 60 5.9 42.7
07:10 1020 30.12 849 25.07 13.5 56.4 61 6.2 43.2
07:15 1020 30.12 849 25.07 13.7 56.7 60 6.2 43.2
07:20 1020 30.12 849 25.07 14.3 57.8 58 6.3 43.3
07:25 1020 30.12 849 25.07 15.1 59.1 56 6.5 43.8
07:30 1020 30.12 849 25.07 15.6 60.1 54 6.3 43.3
07:35 1020 30.12 849 25.07 16.2 61.1 53 6.7 44
07:40 1020 30.12 849 25.07 16.3 61.4 53 6.9 44.4
07:45 1020 30.12 849 25.07 16.7 62.1 51 6.6 43.8
07:50 1020 30.12 849 25.07 17.2 62.9 50 6.7 44
07:55 1020 30.12 849 25.07 17.6 63.8 49 6.9 44.4
08:00 1020 30.12 849 25.07 18.3 65 48 7.1 44.9
08:05 1020 30.12 849 25.07 18.4 65.1 48 7.2 44.9
08:10 1020 30.12 850 25.1 19.4 67 47 8.1 46.6
08:15 1020 30.12 850 25.1 19.7 67.5 45 7.6 45.6
08:20 1020 30.12 850 25.1 19.8 67.6 44 7.4 45.3
08:25 1020 30.12 850 25.1 19.8 67.7 45 7.9 46.1
08:30 1020 30.12 850 25.1 20.6 69.1 45 8.4 47.1
08:35 1020 30.12 850 25.1 20.8 69.4 40 6.9 44.4
08:40 1020 30.12 850 25.1 20.6 69 42 7.2 45
08:45 1020 30.12 850 25.1 20.2 68.3 41 6.5 43.7
08:50 1020 30.12 850 25.1 20.4 68.8 39 6.2 43.2
08:55 1020 30.12 850 25.1 20.6 69.1 39 6.4 43.5
09:00 1020 30.12 850 25.1 20.9 69.7 37 5.8 42.4
09:05 1020 30.12 850 25.1 21.5 70.7 35 5.8 42.4
09:10 1020 30.12 850 25.1 21.3 70.4 36 6 42.9
09:15 1020 30.12 850 25.1 21.8 71.2 35 5.9 42.7
09:20 1020 30.12 849 25.07 22.5 72.4 38 7.7 45.8
09:25 1020 30.12 849 25.07 22.9 73.3 33 5.9 42.6
09:30 1020 30.12 849 25.07 23.3 73.9 32 5.7 42.2
09:35 1020 30.12 849 25.07 23.6 74.5 34 7.2 45
09:40 1020 30.12 849 25.07 23.6 74.5 36 7.8 46
09:45 1020 30.12 849 25.07 22.9 73.2 37 7.5 45.4
09:50 1020 30.12 849 25.07 23.6 74.5 34 7.1 44.8
09:55 1020 30.12 849 25.07 23.9 75 34 7.2 45
10:00 1020 30.12 849 25.07 24.6 76.3 30 6.1 42.9
10:05 1020 30.12 849 25.07 24.9 76.7 28 5.6 42
10:10 1020 30.12 849 25.07 24.1 75.3 32 6.5 43.6
10:15 1020 30.12 849 25.07 23.4 74 32 6 42.8
10:20 1020 30.12 849 25.07 24.3 75.7 30 6 42.7
10:25 1020 30.12 849 25.07 24.5 76 32 6.9 44.3
10:30 1020 30.12 849 25.07 25 77 30 6.5 43.7
10:35 1020 30.12 849 25.07 25.1 77.2 30 6.5 43.8
10:40 1020 30.12 849 25.07 25.3 77.6 29 6 42.9
10:45 1020 30.12 849 25.07 25.3 77.5 30 6.8 44.3
10:50 1020 30.12 849 25.07 24.7 76.4 28 5.4 41.7
10:55 1020 30.12 849 25.07 25.3 77.5 29 6.3 43.4
11:00 1020 30.12 849 25.07 25.6 78.1 29 6.5 43.8
11:05 1020 30.12 849 25.07 25.4 77.7 30 6.6 44
11:10 1020 30.12 849 25.07 25.9 78.6 27 5.8 42.5
11:15 1020 30.12 849 25.07 25.8 78.5 26 5 41
11:20 1020 30.12 849 25.07 26.1 79 24 4 39.2
11:25 1020 30.12 849 25.07 25.9 78.6 23 3.7 38.6
11:30 1020 30.12 849 25.07 26 78.7 24 4.2 39.6
11:35 1020 30.12 849 25.07 26.1 79.1 22 3.2 37.8
11:40 1020 30.12 849 25.07 26.4 79.5 23 4 39.2
11:45 1020 30.12 849 25.07 26.3 79.4 20 1.8 35.2
11:50 1020 30.12 849 25.07 26.5 79.7 24 4.4 40
11:55 1020 30.12 849 25.07 26.5 79.7 22 3.1 37.6
12:00 1020 30.12 849 25.07 26.5 79.7 20 1.7 35.1
12:05 1020 30.12 849 25.07 26.4 79.5 21 2.6 36.7
12:10 1020 30.12 849 25.07 26.3 79.4 22 3 37.3
12:15 1020 30.12 849 25.07 26.8 80.2 20 2.3 36.1
12:20 1020 30.12 849 25.07 26.7 80 21 2.7 36.9
12:25 1020 30.12 849 25.07 27 80.6 19 1.9 35.5
12:30 1020 30.12 849 25.07 26.2 79.2 21 2.4 36.4
12:35 1020 30.12 849 25.07 26.1 78.9 21 2.6 36.7
12:40 1020 30.12 849 25.07 26.2 79.2 20 1.5 34.7
12:45 1020 30.12 849 25.07 27 80.6 20 2.1 35.9
12:50 1020 30.12 849 25.07 26.5 79.7 20 2.2 35.9
12:55 1020 30.12 849 25.07 27 80.7 19 1.9 35.4
13:00 1020 30.12 849 25.07 27.8 82 19 2.6 36.6
13:05 1020 30.12 849 25.07 27.2 80.9 20 2.7 36.9
13:10 1020 30.12 849 25.07 27.4 81.2 20 2.6 36.7
13:15 1020 30.12 849 25.07 28 82.4 19 2.9 37.2
13:20 1020 30.12 849 25.07 27.7 81.8 20 3.1 37.5
13:25 1019 30.09 849 25.07 27.6 81.7 20 2.9 37.2
13:30 1019 30.09 849 25.07 27.7 81.8 19 2.5 36.5
13:35 1019 30.09 848 25.04 27.9 82.1 20 3.3 38
13:40 1019 30.09 848 25.04 27.3 81.2 21 3.3 38
13:45 1019 30.09 848 25.04 27.5 81.5 20 3.1 37.7
13:50 1019 30.09 848 25.04 27.9 82.3 19 2.6 36.6
13:55 1019 30.09 848 25.04 28.8 83.8 19 3.3 37.9
14:00 1019 30.09 848 25.04 28.6 83.5 19 3 37.3
14:05 1019 30.09 848 25.04 28.6 83.4 20 3.6 38.4
14:10 1019 30.09 848 25.04 28.9 84 19 3.4 38.1
14:15 1019 30.09 848 25.04 28.6 83.6 20 3.7 38.6
14:20 1019 30.09 848 25.04 28.4 83.1 19 3 37.5
14:25 1018 30.06 848 25.04 28.2 82.8 19 2.8 37.1
14:30 1018 30.06 848 25.04 28.7 83.6 18 2.6 36.7
14:35 1018 30.06 847 25.01 29.1 84.3 19 3.1 37.6
14:40 1018 30.06 847 25.01 29.1 84.5 17 2.2 35.9
14:45 1018 30.06 847 25.01 28.9 84 18 2.4 36.4
14:50 1018 30.06 847 25.01 28.7 83.6 17 1.2 34.2
14:55 1018 30.06 847 25.01 28.8 83.9 17 1.5 34.7
15:00 1018 30.06 847 25.01 29 84.3 18 2.3 36.2
15:05 1018 30.06 847 25.01 28.6 83.4 17 1.2 34.2
15:10 1018 30.06 847 25.01 28.6 83.6 17 1.2 34.1
15:15 1018 30.06 847 25.01 29 84.1 16 1.3 34.3
15:20 1018 30.06 847 25.01 29.2 84.5 15 0.5 33
15:25 1018 30.06 847 25.01 29.2 84.5 16 1.5 34.8
15:30 1018 30.06 847 25.01 29 84.2 18 2.3 36.1
15:35 1018 30.06 847 25.01 28.4 83.2 18 1.9 35.5
15:40 1018 30.06 847 25.01 28.1 82.6 19 2.3 36.1
15:45 1018 30.06 847 25.01 28.1 82.6 21 3.9 39
15:50 1018 30.06 847 25.01 27.8 82 19 2.3 36.1
15:55 1018 30.06 847 25.01 27.6 81.6 20 2.7 36.9
16:00 1018 30.06 847 25.01 27.1 80.8 24 5.2 41.3
16:05 1018 30.06 847 25.01 24.8 76.6 30 6.3 43.3
16:10 1018 30.06 847 25.01 23.8 74.9 28 4.5 40.1
16:15 1019 30.09 848 25.04 23.4 74.1 37 7.9 46.2
16:20 1019 30.09 848 25.04 21.7 71.1 44 9.1 48.4
16:25 1019 30.09 848 25.04 20.8 69.5 44 8.4 47.1
16:30 1019 30.09 848 25.04 20.6 69.1 47 9.1 48.4
16:35 1019 30.09 849 25.07 20.2 68.4 46 8.3 47
16:40 1020 30.12 849 25.07 20.5 68.8 39 6.3 43.3
16:45 1020 30.12 849 25.07 20.4 68.7 50 9.7 49.5
16:50 1020 30.12 849 25.07 19.5 67.2 48 8.5 47.3
16:55 1020 30.12 849 25.07 19.9 67.9 43 7 44.7
17:00 1019 30.09 848 25.04 20.3 68.6 41 6.8 44.3
17:05 1020 30.12 849 25.07 20.7 69.2 39 6.3 43.4
17:10 1020 30.12 849 25.07 21.4 70.5 39 6.9 44.4
17:15 1019 30.09 849 25.07 22.1 71.8 35 5.9 42.7
17:20 1019 30.09 849 25.07 22.1 71.8 38 7.3 45.1
17:25 1019 30.09 848 25.04 22.5 72.4 37 7.3 45.1
17:30 1019 30.09 848 25.04 22.1 71.8 41 8.5 47.3
17:35 1019 30.09 849 25.07 21.4 70.6 40 7.4 45.3
17:40 1019 30.09 848 25.04 21.4 70.5 41 7.7 45.8
17:45 1019 30.09 848 25.04 21.5 70.8 39 7.2 45
17:50 1019 30.09 848 25.04 21.4 70.5 41 7.6 45.7
17:55 1019 30.09 848 25.04 21.4 70.5 38 6.8 44.3
18:00 1019 30.09 848 25.04 21.7 71 39 7.4 45.3
18:05 1019 30.09 848 25.04 21.8 71.3 40 7.8 46
18:10 1019 30.09 848 25.04 22 71.5 41 8.1 46.6
18:15 1019 30.09 848 25.04 22.2 72 39 7.8 46
18:20 1019 30.09 848 25.04 22.1 71.7 40 8 46.3
18:25 1019 30.09 848 25.04 22.1 71.7 37 6.8 44.2
18:30 1019 30.09 848 25.04 22.1 71.7 36 6.5 43.7
18:35 1019 30.09 848 25.04 22.4 72.4 36 6.7 44.1
18:40 1019 30.09 848 25.04 22.7 72.8 37 7.4 45.2
18:45 1019 30.09 849 25.07 22.8 73.1 37 7.5 45.5
18:50 1019 30.09 849 25.07 22.9 73.1 35 6.8 44.3
18:55 1020 30.12 849 25.07 22.7 72.9 36 7 44.6
19:00 1020 30.12 849 25.07 22.8 73 33 6 42.8
19:05 1020 30.12 849 25.07 22.6 72.6 37 7.2 45
19:10 1020 30.12 850 25.1 22 71.5 42 8.7 47.7
19:15 1021 30.15 850 25.1 20.3 68.5 49 9.4 48.9
19:20 1021 30.15 850 25.1 18.4 65.2 58 10.1 50.1
19:25 1021 30.15 850 25.1 17.3 63.2 60 9.7 49.4
19:30 1021 30.15 850 25.1 17 62.6 62 9.8 49.6
19:35 1021 30.15 850 25.1 16.6 61.8 66 10.3 50.6
19:40 1021 30.15 850 25.1 16.3 61.4 65 9.8 49.6
19:45 1021 30.15 850 25.1 16.3 61.3 66 9.9 49.9
19:50 1021 30.15 850 25.1 16.2 61.2 65 9.7 49.4
19:55 1020 30.12 850 25.1 16.2 61.1 64 9.5 49.1
20:00 1020 30.12 850 25.1 16.2 61.2 64 9.6 49.2
20:05 1020 30.12 850 25.1 16.3 61.3 62 9.1 48.4
20:10 1020 30.12 850 25.1 16.4 61.6 63 9.4 48.8
20:15 1020 30.12 850 25.1 16.4 61.6 64 9.8 49.6
20:20 1020 30.12 850 25.1 16.4 61.5 64 9.8 49.6
20:25 1021 30.15 850 25.1 16.4 61.5 66 10.1 50.1
20:30 1021 30.15 850 25.1 16.3 61.3 67 10.2 50.3
20:35 1020 30.12 850 25.1 16.2 61.1 68 10.3 50.6
20:40 1020 30.12 849 25.07 16.4 61.5 63 9.4 49
20:45 1020 30.12 849 25.07 16.5 61.8 62 9.4 48.9
20:50 1019 30.09 848 25.04 16.5 61.7 60 8.7 47.7
20:55 1019 30.09 848 25.04 16.6 61.9 56 7.9 46.3
21:00 1019 30.09 848 25.04 17 62.6 55 8 46.5
21:05 1019 30.09 848 25.04 17.1 62.8 53 7.6 45.6
21:10 1019 30.09 848 25.04 17.3 63.2 52 7.5 45.5
21:15 1019 30.09 848 25.04 17.6 63.7 49 6.8 44.2
21:20 1019 30.09 848 25.04 17.9 64.2 48 6.8 44.2
21:25 1019 30.09 849 25.07 18.1 64.5 46 6.5 43.8
21:30 1019 30.09 849 25.07 17.8 64 52 7.8 46.1
21:35 1020 30.12 849 25.07 17.4 63.4 52 7.6 45.6
21:40 1020 30.12 849 25.07 17.4 63.4 50 7.1 44.7
21:45 1020 30.12 849 25.07 17.5 63.5 55 8.3 47
21:50 1020 30.12 849 25.07 17.5 63.5 53 7.9 46.1
21:55 1020 30.12 849 25.07 17.1 62.9 53 7.6 45.7
22:00 1020 30.12 849 25.07 17.2 63 52 7.4 45.3
22:05 1020 30.12 849 25.07 17.2 63 54 7.9 46.2
22:10 1020 30.12 849 25.07 16.9 62.5 54 7.7 45.9
22:15 1020 30.12 849 25.07 16.8 62.2 55 7.8 46.1
22:20 1020 30.12 849 25.07 16.8 62.3 54 7.7 45.8
22:25 1020 30.12 849 25.07 16.8 62.3 55 7.8 46
22:30 1020 30.12 849 25.07 16.7 62.1 55 7.7 45.9
22:35 1020 30.12 849 25.07 16.8 62.2 54 7.5 45.4
22:40 1020 30.12 849 25.07 16.9 62.3 56 8 46.4
22:45 1020 30.12 849 25.07 16.9 62.4 55 7.9 46.2
22:50 1020 30.12 849 25.07 16.8 62.2 57 8.2 46.8
22:55 1020 30.12 849 25.07 16.4 61.5 58 8.3 46.9
23:00 1020 30.12 849 25.07 16.1 61.1 59 8.3 46.9
23:05 1020 30.12 849 25.07 15.8 60.4 62 8.5 47.3
23:10 1020 30.12 849 25.07 15.5 59.9 62 8.4 47.2
23:15 1020 30.12 849 25.07 15.3 59.6 63 8.4 47.1
23:20 1020 30.12 849 25.07 15.2 59.3 64 8.4 47.1
23:25 1020 30.12 849 25.07 15 59 65 8.6 47.5
23:30 1020 30.12 849 25.07 14.7 58.4 67 8.6 47.5
23:35 1019 30.09 849 25.07 14.5 58.1 68 8.7 47.6
23:40 1020 30.12 849 25.07 14.5 58.1 69 8.9 48
23:45 1020 30.12 849 25.07 14.3 57.8 70 8.9 48.1
23:50 1020 30.12 849 25.07 14.3 57.7 70 9 48.2
23:55 1020 30.12 849 25.07 14.2 57.6 70 8.9 48
24:00 1020 30.12 849 25.07 14.2 57.6 70 8.9 48.1